Terminal Aerodrome Forecast
Issued by NWS Atlanta, GA

Home | Current Version | Previous Version | Text Only | Print | Product List | Glossary On
Versions: 1 2 3 4 5 6 7 8 9 10 11 12 13 14 15 16 17 18 19 20 21 22 23 24 25 26 27 28 29 30 31 32 33 34 35 36 37 38 39
420
FTUS42 KFFC 300756 AAA
TAFATL
TAF AMD
KATL 300756Z 3008/0112 08006KT P6SM SCT070 BKN250
     FM301000 12006KT P6SM BKN250
     FM301500 17006KT P6SM SCT035
     FM301800 19010KT P6SM BKN050 PROB30 3019/3024 4SM -TSRA BR
      BKN030CB
     FM010000 17005KT P6SM SCT060 BKN250=

USA.gov is the U.S. government's official web portal to all federal, state and local government web resources and services.